Time;durP1;ratioP1;P1;durP2;ratioP2;P2;SDS_P1;SDS_P2;PMS_P1;PMS_P2;Temp;Humidity;BMP_temperature;BMP_pressure;BME280_temperature;BME280_humidity;BME280_pressure;Samples;Min_cycle;Max_cycle;Signal;HPM_P1;HPM_P2
2022/01/24 00:00:24;;;;;;;3.40;2.00;;;;;;;5.50;100.00;100866.91;5091442;28;20203;-82
2022/01/24 00:02:52;;;;;;;2.37;2.17;;;;;;;5.53;100.00;100865.97;5091360;28;20215;-82
2022/01/24 00:05:21;;;;;;;2.43;1.90;;;;;;;5.47;100.00;100865.16;5092339;28;20188;-82
2022/01/24 00:07:49;;;;;;;2.47;1.70;;;;;;;5.36;100.00;100871.47;5086807;28;20191;-82
2022/01/24 00:10:22;;;;;;;2.07;1.50;;;;;;;5.38;100.00;100867.06;5088825;28;20260;-82
2022/01/24 00:13:06;;;;;;;2.07;1.70;;;;;;;5.41;100.00;100867.91;5085799;28;20211;-82
2022/01/24 00:15:52;;;;;;;2.47;1.90;;;;;;;5.49;100.00;100864.28;5120825;27;20183;-79
2022/01/24 00:18:31;;;;;;;2.43;1.60;;;;;;;5.45;100.00;100869.59;5162858;27;20204;-81
2022/01/24 00:26:46;;;;;;;4.20;2.73;;;;;;;5.44;100.00;100870.47;5139053;27;20205;-84
2022/01/24 00:29:16;;;;;;;6.20;3.40;;;;;;;5.42;100.00;100874.03;5174860;27;20189;-82
2022/01/24 00:31:46;;;;;;;6.23;3.30;;;;;;;5.46;100.00;100868.69;5170090;27;20209;-81
2022/01/24 00:34:16;;;;;;;3.20;1.93;;;;;;;5.51;100.00;100870.41;5180373;27;20201;-81
2022/01/24 00:36:47;;;;;;;1.57;1.03;;;;;;;5.60;100.00;100867.63;5115904;28;20195;-82
2022/01/24 00:39:16;;;;;;;1.83;1.10;;;;;;;5.51;100.00;100875.66;5114315;28;20199;-83
2022/01/24 00:41:51;;;;;;;1.33;1.00;;;;;;;5.57;100.00;100870.28;5117962;28;20191;-82
2022/01/24 00:44:41;;;;;;;1.30;1.00;;;;;;;5.54;100.00;100872.97;5112425;28;20190;-82
2022/01/24 00:47:18;;;;;;;6.80;3.10;;;;;;;5.34;100.00;100876.78;5110798;28;20191;-82
2022/01/24 00:53:01;;;;;;;9.47;4.00;;;;;;;5.42;100.00;100877.53;5114262;28;20266;-82
2022/01/24 00:53:11;;;;;;;2.63;1.80;;;;;;;5.46;100.00;100878.34;5115307;28;20267;-82
2022/01/24 00:55:41;;;;;;;1.20;1.07;;;;;;;5.45;100.00;100879.22;5168347;27;20221;-82
2022/01/24 00:58:09;;;;;;;2.57;1.00;;;;;;;5.35;100.00;100878.50;5178893;27;20189;-82
2022/01/24 01:00:37;;;;;;;0.80;0.80;;;;;;;5.35;100.00;100875.88;5171094;27;20201;-82
2022/01/24 01:03:08;;;;;;;2.20;1.30;;;;;;;5.41;100.00;100877.56;5174967;27;20215;-82
2022/01/24 01:05:53;;;;;;;5.20;3.30;;;;;;;5.29;100.00;100875.09;5175438;27;20245;-83
2022/01/24 01:19:40;;;;;;;7.80;3.90;;;;;;;5.28;100.00;100875.97;5179205;27;20227;-82
2022/01/24 01:22:10;;;;;;;6.17;3.00;;;;;;;5.33;100.00;100863.66;5176916;27;20189;-82
2022/01/24 01:24:44;;;;;;;4.40;2.40;;;;;;;5.49;100.00;100875.66;5176700;27;20196;-83
2022/01/24 01:27:17;;;;;;;3.40;2.07;;;;;;;5.50;100.00;100872.16;5178214;27;20196;-82
2022/01/24 01:30:04;;;;;;;2.37;1.37;;;;;;;5.45;100.00;100866.97;5169416;27;20222;-82
2022/01/24 01:32:54;;;;;;;2.13;1.20;;;;;;;5.40;100.00;100870.53;5179943;27;20217;-82
2022/01/24 01:35:42;;;;;;;3.93;2.30;;;;;;;5.41;100.00;100867.91;5183573;27;20196;-82
2022/01/24 01:52:28;;;;;;;6.07;3.30;;;;;;;5.20;100.00;100860.31;5132398;27;20280;-82
2022/01/24 01:55:11;;;;;;;4.47;2.33;;;;;;;5.23;100.00;100849.78;5172911;27;20249;-82
2022/01/24 01:57:39;;;;;;;4.27;2.40;;;;;;;5.13;100.00;100854.31;5176986;27;20197;-82
2022/01/24 02:00:09;;;;;;;3.43;2.17;;;;;;;5.15;100.00;100841.16;5181007;27;20196;-82
2022/01/24 02:02:38;;;;;;;1.47;1.10;;;;;;;5.06;100.00;100852.66;5178299;27;20667;-82
2022/01/24 02:05:07;;;;;;;1.60;1.20;;;;;;;5.15;100.00;100855.16;5181231;27;20204;-82
2022/01/24 02:07:47;;;;;;;8.20;3.23;;;;;;;5.21;100.00;100853.31;5176701;27;20242;-82
2022/01/24 02:10:16;;;;;;;14.53;5.97;;;;;;;5.10;100.00;100851.72;5180489;27;20197;-82
2022/01/24 02:12:45;;;;;;;12.37;4.87;;;;;;;5.19;100.00;100853.34;5175794;27;20212;-82
2022/01/24 02:15:17;;;;;;;12.43;4.73;;;;;;;5.23;100.00;100848.94;5171858;27;20196;-82
2022/01/24 02:17:58;;;;;;;9.27;3.70;;;;;;;5.23;100.00;100849.78;5178963;27;20310;-83
2022/01/24 02:20:42;;;;;;;1.47;1.30;;;;;;;5.09;100.00;100852.59;5178042;27;20192;-82
2022/01/24 02:26:02;;;;;;;1.63;1.10;;;;;;;5.27;100.00;100853.22;5178351;27;20194;-83
2022/01/24 02:28:42;;;;;;;3.47;2.20;;;;;;;5.15;100.00;100856.91;5178725;27;20210;-82
2022/01/24 02:31:25;;;;;;;1.60;1.30;;;;;;;5.22;100.00;100850.69;5174888;27;20245;-82
2022/01/24 02:33:57;;;;;;;1.30;1.20;;;;;;;5.13;100.00;100851.69;5172579;27;20220;-82
2022/01/24 02:36:26;;;;;;;1.43;1.30;;;;;;;5.27;100.00;100848.84;5170435;27;20204;-82
2022/01/24 02:39:06;;;;;;;1.60;1.20;;;;;;;5.34;100.00;100840.00;5176014;27;20250;-82
2022/01/24 02:49:59;;;;;;;2.30;1.27;;;;;;;5.13;100.00;100829.81;5180212;27;20181;-83
2022/01/24 02:52:28;;;;;;;1.33;1.00;;;;;;;5.25;100.00;100832.25;5173059;27;20216;-83
2022/01/24 02:54:58;;;;;;;1.50;1.10;;;;;;;5.33;100.00;100838.25;5169627;27;20201;-82
2022/01/24 02:57:27;;;;;;;1.33;1.00;;;;;;;5.22;100.00;100839.31;5174332;27;20197;-83
2022/01/24 02:59:55;;;;;;;2.97;1.53;;;;;;;5.16;100.00;100835.00;5175669;27;20200;-83
2022/01/24 03:02:24;;;;;;;1.07;0.93;;;;;;;5.09;100.00;100835.97;5077635;28;20274;-83
2022/01/24 03:04:56;;;;;;;1.30;1.17;;;;;;;4.98;100.00;100845.78;5069018;28;20208;-82
2022/01/24 03:07:25;;;;;;;2.67;1.20;;;;;;;5.08;100.00;100839.50;5067525;28;20200;-82
2022/01/24 03:10:02;;;;;;;2.03;1.33;;;;;;;5.16;100.00;100846.38;5028870;28;20203;-82
2022/01/24 03:12:41;;;;;;;3.57;1.57;;;;;;;5.23;100.00;100835.78;5073095;28;20212;-83
2022/01/24 03:15:11;;;;;;;2.83;1.53;;;;;;;5.11;100.00;100831.56;5071182;28;20203;-83
2022/01/24 03:17:39;;;;;;;1.70;1.10;;;;;;;5.08;100.00;100829.00;5071133;28;20200;-82
2022/01/24 03:20:08;;;;;;;4.40;2.00;;;;;;;5.04;100.00;100819.44;5100880;27;20644;-82
2022/01/24 03:22:37;;;;;;;0.93;0.87;;;;;;;5.18;100.00;100827.97;5190473;27;20233;-81
2022/01/24 03:25:10;;;;;;;0.90;0.80;;;;;;;5.19;100.00;100819.19;5174150;27;20205;-82
2022/01/24 03:27:39;;;;;;;4.50;2.00;;;;;;;4.98;100.00;100816.88;5188465;27;20376;-81
2022/01/24 03:30:10;;;;;;;2.80;1.50;;;;;;;4.96;100.00;100814.28;5162850;27;20197;-82
2022/01/24 03:32:38;;;;;;;3.13;1.63;;;;;;;4.98;100.00;100824.78;5196597;27;20216;-81
2022/01/24 03:35:09;;;;;;;1.17;1.07;;;;;;;5.10;100.00;100817.56;5199467;27;20258;-81
2022/01/24 03:37:39;;;;;;;1.80;1.30;;;;;;;5.03;100.00;100808.06;5157290;27;20258;-81
2022/01/24 03:40:11;;;;;;;1.53;1.10;;;;;;;5.00;100.00;100804.59;5149988;27;20659;-82
2022/01/24 03:42:40;;;;;;;2.87;1.50;;;;;;;4.97;100.00;100816.03;5129371;27;20197;-82
2022/01/24 03:45:10;;;;;;;2.97;1.30;;;;;;;5.06;100.00;100809.78;5132712;27;20317;-82
2022/01/24 03:47:56;;;;;;;6.47;2.47;;;;;;;4.91;100.00;100805.59;5132483;27;20625;-82
2022/01/24 03:50:24;;;;;;;3.07;1.77;;;;;;;4.94;100.00;100816.06;5135017;27;20293;-82
2022/01/24 03:52:52;;;;;;;1.87;1.50;;;;;;;4.90;100.00;100814.38;5128408;27;20214;-83
2022/01/24 03:55:22;;;;;;;1.33;1.20;;;;;;;5.03;100.00;100809.81;5130341;27;20182;-82
2022/01/24 03:57:50;;;;;;;1.10;1.00;;;;;;;4.88;100.00;100814.41;5135750;27;20243;-82
2022/01/24 04:00:19;;;;;;;0.80;0.80;;;;;;;4.93;100.00;100816.97;5131954;27;20209;-83
2022/01/24 04:02:47;;;;;;;1.93;1.07;;;;;;;4.98;100.00;100819.50;5166077;27;20201;-83
2022/01/24 04:05:18;;;;;;;0.83;0.83;;;;;;;4.91;100.00;100816.09;5170209;27;20220;-82
2022/01/24 04:07:47;;;;;;;1.33;1.00;;;;;;;5.02;100.00;100815.94;5112541;27;20200;-83
2022/01/24 04:10:18;;;;;;;1.07;0.90;;;;;;;4.99;100.00;100816.00;5176590;27;20200;-82
2022/01/24 04:12:50;;;;;;;1.30;0.90;;;;;;;5.13;100.00;100824.56;5174200;27;20655;-82
2022/01/24 04:15:45;;;;;;;1.33;1.00;;;;;;;5.02;100.00;100813.31;5173699;27;20282;-83
2022/01/24 04:18:32;;;;;;;1.20;1.10;;;;;;;5.03;100.00;100808.06;5180467;27;20188;-82
2022/01/24 04:21:26;;;;;;;1.37;1.07;;;;;;;5.09;100.00;100809.72;5174570;27;20232;-82
2022/01/24 04:24:00;;;;;;;1.10;1.00;;;;;;;5.16;100.00;100799.09;5173521;27;20233;-82
2022/01/24 04:26:30;;;;;;;0.80;0.80;;;;;;;5.03;100.00;100808.06;5168859;27;20200;-83
2022/01/24 04:29:00;;;;;;;1.70;1.20;;;;;;;4.96;100.00;100805.56;5172703;27;20233;-82
2022/01/24 04:31:29;;;;;;;1.63;1.00;;;;;;;4.88;100.00;100796.00;5169353;27;20189;-83
2022/01/24 04:33:58;;;;;;;1.70;1.03;;;;;;;4.91;100.00;100799.47;5170234;27;20208;-82
2022/01/24 04:36:28;;;;;;;1.00;0.90;;;;;;;4.82;100.00;100800.47;5173010;27;20192;-82
2022/01/24 04:38:57;;;;;;;1.10;0.90;;;;;;;4.85;100.00;100808.34;5171303;27;20181;-82
2022/01/24 04:41:29;;;;;;;0.70;0.70;;;;;;;4.70;100.00;100800.66;5173472;27;20284;-83
2022/01/24 04:44:08;;;;;;;1.57;1.00;;;;;;;4.70;100.00;100798.91;5172465;27;20189;-82
2022/01/24 04:46:51;;;;;;;1.10;1.00;;;;;;;4.82;100.00;100800.47;5176020;27;20189;-82
2022/01/24 04:52:16;;;;;;;2.13;0.90;;;;;;;4.78;100.00;100797.03;5179858;27;20188;-83
2022/01/24 04:54:45;;;;;;;1.33;0.90;;;;;;;4.86;100.00;100807.44;5171057;27;20720;-82
2022/01/24 04:57:16;;;;;;;1.10;0.70;;;;;;;4.84;100.00;100796.97;5175416;27;20193;-82
2022/01/24 04:59:47;;;;;;;1.10;0.90;;;;;;;4.76;100.00;100801.44;5168369;27;20274;-82
2022/01/24 05:02:17;;;;;;;0.70;0.70;;;;;;;4.69;100.00;100802.41;5176937;27;20185;-82
2022/01/24 05:04:46;;;;;;;2.17;0.90;;;;;;;4.66;100.00;100798.97;5172280;27;20190;-83
2022/01/24 05:07:14;;;;;;;1.10;1.00;;;;;;;4.71;100.00;100813.75;5168602;27;20193;-83
2022/01/24 05:09:49;;;;;;;0.90;0.80;;;;;;;4.71;100.00;100805.00;5177752;27;20221;-83
2022/01/24 05:12:26;;;;;;;1.70;0.90;;;;;;;4.79;100.00;100800.53;5180521;27;20189;-83
2022/01/24 05:23:28;;;;;;;1.57;1.47;;;;;;;4.62;100.00;100806.00;5176816;27;20200;-83
2022/01/24 05:25:58;;;;;;;1.57;1.17;;;;;;;4.67;100.00;100801.56;5175653;27;20192;-83
2022/01/24 05:28:27;;;;;;;1.40;1.30;;;;;;;4.71;100.00;100803.25;5175516;27;20249;-83
2022/01/24 05:30:58;;;;;;;1.10;1.00;;;;;;;4.68;100.00;100813.81;5176721;27;20207;-83
2022/01/24 05:33:27;;;;;;;2.27;1.67;;;;;;;4.68;100.00;100800.69;5171678;27;20659;-83
2022/01/24 05:35:55;;;;;;;5.00;3.43;;;;;;;4.77;100.00;100811.06;5176121;27;20188;-82
2022/01/24 05:38:25;;;;;;;11.70;7.83;;;;;;;4.78;100.00;100804.03;5176015;27;20197;-82
2022/01/24 05:40:53;;;;;;;5.77;5.00;;;;;;;4.98;100.00;100811.63;5170842;27;20205;-83
2022/01/24 05:43:22;;;;;;;2.50;1.80;;;;;;;4.73;100.00;100808.47;5167441;27;20269;-83
2022/01/24 05:45:51;;;;;;;1.50;1.30;;;;;;;4.88;100.00;100810.91;5172621;27;20217;-83
2022/01/24 05:48:21;;;;;;;1.33;1.23;;;;;;;4.78;100.00;100807.53;5178597;27;20249;-83
2022/01/24 05:50:49;;;;;;;1.20;1.10;;;;;;;4.79;100.00;100808.41;5171879;27;20201;-82
2022/01/24 05:53:19;;;;;;;0.97;0.80;;;;;;;4.77;100.00;100802.31;5168116;27;20226;-82
2022/01/24 05:55:47;;;;;;;1.57;1.07;;;;;;;4.66;100.00;100809.47;5171454;27;20722;-82
2022/01/24 05:58:15;;;;;;;1.30;0.90;;;;;;;4.64;100.00;100817.38;5176752;27;20192;-83
2022/01/24 06:00:44;;;;;;;0.87;0.80;;;;;;;4.59;100.00;100819.16;5170756;27;20185;-82
2022/01/24 06:03:12;;;;;;;1.10;1.00;;;;;;;4.49;100.00;100825.41;5171917;27;20288;-83
2022/01/24 06:05:42;;;;;;;1.20;0.90;;;;;;;4.60;100.00;100821.78;5178707;27;20205;-82
2022/01/24 06:08:10;;;;;;;2.10;1.10;;;;;;;4.72;100.00;100825.13;5160031;27;20200;-83
2022/01/24 06:10:39;;;;;;;3.47;1.60;;;;;;;4.79;100.00;100829.41;5175414;27;20253;-83
2022/01/24 06:13:08;;;;;;;2.13;1.37;;;;;;;4.76;100.00;100832.94;5170436;27;20201;-83
2022/01/24 06:15:36;;;;;;;1.60;1.20;;;;;;;4.81;100.00;100828.47;5175185;27;20209;-82
2022/01/24 06:18:04;;;;;;;2.10;1.57;;;;;;;4.84;100.00;100825.84;5178226;27;20279;-83
2022/01/24 06:20:33;;;;;;;2.53;1.70;;;;;;;4.75;100.00;100819.84;5183907;27;20197;-83
2022/01/24 06:23:03;;;;;;;4.03;2.20;;;;;;;4.86;100.00;100826.69;5174970;27;20220;-83
2022/01/24 06:25:31;;;;;;;5.00;2.87;;;;;;;4.82;100.00;100826.72;5170862;27;20199;-82
2022/01/24 06:27:59;;;;;;;6.43;3.00;;;;;;;4.94;100.00;100829.22;5174036;27;20193;-83
2022/01/24 06:30:28;;;;;;;2.60;2.10;;;;;;;4.91;100.00;100823.13;5171985;27;20193;-83
2022/01/24 06:32:56;;;;;;;1.30;1.20;;;;;;;4.86;100.00;100829.31;5167665;27;20229;-83
2022/01/24 06:35:25;;;;;;;1.67;1.30;;;;;;;4.87;100.00;100817.03;5178396;27;20238;-83
2022/01/24 06:37:53;;;;;;;1.07;0.97;;;;;;;4.87;100.00;100820.53;5123570;27;20225;-82
2022/01/24 06:40:23;;;;;;;1.20;1.10;;;;;;;4.80;100.00;100825.88;5172838;27;20197;-83
2022/01/24 06:42:51;;;;;;;1.50;1.10;;;;;;;4.78;100.00;100831.16;5171522;27;20192;-82
2022/01/24 06:45:19;;;;;;;1.37;0.80;;;;;;;4.78;100.00;100825.03;5120118;27;1267098;-82
2022/01/24 06:47:48;;;;;;;1.17;0.80;;;;;;;4.84;100.00;100828.47;5172092;27;20189;-82
2022/01/24 06:50:19;;;;;;;0.90;0.80;;;;;;;4.68;100.00;100834.81;5170834;27;20244;-82
2022/01/24 06:52:48;;;;;;;1.10;0.93;;;;;;;4.69;100.00;100833.03;5175757;27;20241;-83
2022/01/24 06:55:16;;;;;;;1.77;1.17;;;;;;;4.73;100.00;100840.88;5178312;27;20209;-82
2022/01/24 06:57:46;;;;;;;3.57;1.60;;;;;;;4.80;100.00;100834.63;5174906;27;20189;-83
2022/01/24 07:00:15;;;;;;;1.00;0.90;;;;;;;4.79;100.00;100824.16;5166239;27;20289;-82
2022/01/24 07:02:43;;;;;;;1.17;0.80;;;;;;;4.87;100.00;100831.03;5170744;27;20193;-82
2022/01/24 07:05:13;;;;;;;1.47;1.00;;;;;;;4.79;100.00;100827.66;5175943;27;20212;-83
2022/01/24 07:07:41;;;;;;;2.20;1.00;;;;;;;4.73;100.00;100827.75;5171913;27;20193;-83
2022/01/24 07:10:09;;;;;;;1.70;1.00;;;;;;;4.66;100.00;100827.84;5171486;27;20197;-83
2022/01/24 07:12:57;;;;;;;1.20;1.10;;;;;;;4.62;100.00;100827.00;5176603;27;20193;-83
2022/01/24 07:15:32;;;;;;;1.37;1.00;;;;;;;4.69;100.00;100838.28;5169502;27;20216;-83
2022/01/24 07:18:16;;;;;;;2.00;1.10;;;;;;;4.68;100.00;100834.81;5171146;27;20188;-83
2022/01/24 07:20:45;;;;;;;1.10;0.90;;;;;;;4.49;100.00;100828.03;5171198;27;20204;-83
2022/01/24 07:23:13;;;;;;;1.20;1.10;;;;;;;4.67;100.00;100832.19;5173899;27;20310;-83
2022/01/24 07:25:44;;;;;;;1.77;1.33;;;;;;;4.67;100.00;100840.06;5177186;27;20200;-83
2022/01/24 07:28:18;;;;;;;0.93;0.90;;;;;;;4.65;100.00;100844.47;5176473;27;20193;-83
2022/01/24 07:30:46;;;;;;;1.30;1.20;;;;;;;4.68;100.00;100841.81;5135173;27;20270;-83
2022/01/24 07:33:16;;;;;;;1.47;1.37;;;;;;;4.64;100.00;100840.13;5123515;27;20208;-83
2022/01/24 07:35:45;;;;;;;1.83;1.73;;;;;;;4.76;100.00;100834.72;5133441;27;20248;-84
2022/01/24 07:38:14;;;;;;;2.27;2.07;;;;;;;4.69;100.00;100843.53;5127181;27;20186;-83
2022/01/24 07:40:47;;;;;;;2.33;1.43;;;;;;;4.66;100.00;100846.22;5129642;27;20186;-83
2022/01/24 07:43:16;;;;;;;2.20;1.40;;;;;;;4.69;100.00;100846.16;5129675;27;20194;-83
2022/01/24 07:45:46;;;;;;;1.50;1.00;;;;;;;4.78;100.00;100853.91;5130490;27;20232;-83
2022/01/24 07:48:16;;;;;;;1.60;1.50;;;;;;;4.82;100.00;100845.09;5142439;27;20197;-83
2022/01/24 07:50:46;;;;;;;1.57;1.20;;;;;;;4.65;100.00;100852.34;5174347;27;20205;-83
2022/01/24 07:53:17;;;;;;;1.30;1.20;;;;;;;4.72;100.00;100860.09;5169431;27;20280;-83
2022/01/24 07:56:06;;;;;;;1.20;1.10;;;;;;;4.56;100.00;100863.81;5176858;27;20659;-82
2022/01/24 07:58:36;;;;;;;1.13;1.03;;;;;;;4.69;100.00;100864.53;5175652;27;20196;-83
2022/01/24 08:01:04;;;;;;;1.13;1.03;;;;;;;4.49;100.00;100859.53;5168092;27;20200;-83
2022/01/24 08:03:34;;;;;;;1.73;1.20;;;;;;;4.52;100.00;100864.72;5177463;27;20185;-83
2022/01/24 08:06:02;;;;;;;1.23;1.10;;;;;;;4.60;100.00;100861.13;5173746;27;20193;-83
2022/01/24 08:08:31;;;;;;;2.00;1.70;;;;;;;4.61;100.00;100869.88;5174016;27;20196;-83
2022/01/24 08:10:59;;;;;;;2.13;1.30;;;;;;;4.60;100.00;100869.00;5177096;27;20191;-82
2022/01/24 08:13:28;;;;;;;1.53;0.97;;;;;;;4.66;100.00;100875.94;5173386;27;20279;-82
2022/01/24 08:15:58;;;;;;;1.00;0.90;;;;;;;4.73;100.00;100877.63;5174086;27;20208;-83
2022/01/24 08:18:26;;;;;;;1.30;1.20;;;;;;;4.77;100.00;100876.69;5177776;27;20192;-83
2022/01/24 08:20:55;;;;;;;2.30;1.30;;;;;;;4.74;100.00;100879.34;5168833;27;20196;-84
2022/01/24 08:23:23;;;;;;;1.60;1.40;;;;;;;4.84;100.00;100880.97;5173375;27;20189;-83
2022/01/24 08:25:55;;;;;;;2.10;1.40;;;;;;;4.78;100.00;100878.41;5171974;27;20260;-83
2022/01/24 08:28:23;;;;;;;2.00;1.40;;;;;;;4.69;100.00;100894.28;5166926;27;20200;-84
2022/01/24 08:30:52;;;;;;;2.00;1.00;;;;;;;4.78;100.00;100882.78;5174577;27;20632;-83
2022/01/24 08:33:22;;;;;;;1.53;1.30;;;;;;;4.79;100.00;100879.28;5168903;27;20200;-83
2022/01/24 08:35:52;;;;;;;3.43;2.10;;;;;;;4.82;100.00;100873.97;5170745;27;20220;-83
2022/01/24 08:38:22;;;;;;;4.23;2.40;;;;;;;4.68;100.00;100881.16;5171974;27;20193;-83
2022/01/24 08:40:56;;;;;;;4.80;2.10;;;;;;;4.78;100.00;100885.41;5168360;27;20197;-83
2022/01/24 08:43:37;;;;;;;3.90;1.90;;;;;;;4.76;100.00;100885.44;5167518;27;20200;-84
2022/01/24 08:46:07;;;;;;;2.10;1.50;;;;;;;4.80;100.00;100881.00;5175805;27;20220;-83
2022/01/24 08:48:42;;;;;;;2.00;1.80;;;;;;;4.79;100.00;100885.41;5170464;27;20189;-82
2022/01/24 08:51:14;;;;;;;3.70;2.20;;;;;;;4.71;100.00;100879.38;5176087;27;20204;-83
2022/01/24 08:54:03;;;;;;;2.93;1.60;;;;;;;4.87;100.00;100875.66;5175913;27;20218;-83
2022/01/24 08:56:31;;;;;;;4.00;1.70;;;;;;;4.83;100.00;100879.25;5172771;27;20224;-83
2022/01/24 08:59:00;;;;;;;3.00;1.40;;;;;;;4.94;100.00;100875.59;5114422;27;20212;-83
2022/01/24 09:01:28;;;;;;;1.50;1.27;;;;;;;4.92;100.00;100869.47;5169511;27;20191;-82
2022/01/24 09:03:58;;;;;;;1.30;1.17;;;;;;;5.06;100.00;100871.03;5168300;27;20193;-83
2022/01/24 09:06:28;;;;;;;1.57;1.30;;;;;;;5.05;100.00;100861.44;5175526;27;20209;-82
2022/01/24 09:09:00;;;;;;;5.27;3.40;;;;;;;4.98;100.00;100861.53;5089665;28;20189;-82
2022/01/24 09:11:30;;;;;;;1.87;1.30;;;;;;;5.11;100.00;100870.97;5084603;28;20196;-83
2022/01/24 09:13:59;;;;;;;1.50;1.10;;;;;;;5.14;100.00;100863.94;5081111;28;20184;-82
2022/01/24 09:16:28;;;;;;;2.13;1.10;;;;;;;5.03;100.00;100864.97;5088979;28;20215;-82
2022/01/24 09:18:59;;;;;;;1.23;0.90;;;;;;;5.04;100.00;100861.47;5087460;28;20271;-82
2022/01/24 09:21:30;;;;;;;2.63;1.10;;;;;;;4.80;100.00;100857.38;5086436;28;20221;-82
2022/01/24 09:24:00;;;;;;;3.97;1.00;;;;;;;5.03;100.00;100860.59;5091755;28;20203;-82
2022/01/24 09:26:28;;;;;;;2.07;1.80;;;;;;;5.12;100.00;100860.47;5106189;27;20197;-83
2022/01/24 09:28:56;;;;;;;3.17;2.20;;;;;;;5.08;100.00;100861.38;5174499;27;20185;-82
2022/01/24 09:31:25;;;;;;;1.40;1.30;;;;;;;5.10;100.00;100859.59;5168565;27;20208;-83
2022/01/24 09:33:57;;;;;;;1.47;1.07;;;;;;;4.97;100.00;100859.78;5174708;27;20199;-82
2022/01/24 09:36:27;;;;;;;0.90;0.70;;;;;;;4.96;100.00;100851.06;5122746;27;20220;-82
2022/01/24 09:38:56;;;;;;;1.10;1.00;;;;;;;5.04;100.00;100849.19;5172118;27;20241;-82
2022/01/24 09:41:25;;;;;;;2.60;2.40;;;;;;;5.18;100.00;100854.22;5114888;28;20195;-82
2022/01/24 09:43:53;;;;;;;1.40;1.30;;;;;;;5.23;100.00;100857.69;5105282;28;20195;-83
2022/01/24 09:46:21;;;;;;;2.90;1.20;;;;;;;5.31;100.00;100862.81;5104037;28;20219;-83
2022/01/24 09:48:50;;;;;;;1.20;1.10;;;;;;;5.17;100.00;100857.75;5111020;28;20226;-83
2022/01/24 09:51:20;;;;;;;4.10;1.20;;;;;;;5.23;100.00;100864.69;5104858;28;20195;-82
2022/01/24 09:53:51;;;;;;;1.73;1.20;;;;;;;5.36;100.00;100868.84;5069733;28;20214;-82
2022/01/24 09:56:19;;;;;;;2.23;1.40;;;;;;;5.24;100.00;100861.16;5069034;28;20279;-82
2022/01/24 09:58:47;;;;;;;2.27;1.40;;;;;;;5.38;100.00;100861.81;5079558;28;20193;-82
2022/01/24 10:01:18;;;;;;;1.50;1.30;;;;;;;5.55;100.00;100853.69;5112720;28;20199;-83
2022/01/24 10:04:06;;;;;;;3.10;1.30;;;;;;;5.50;100.00;100866.00;5114091;28;20218;-82
2022/01/24 10:06:59;;;;;;;3.93;2.30;;;;;;;5.39;100.00;100861.78;5109515;28;20199;-82
2022/01/24 10:09:31;;;;;;;4.43;2.17;;;;;;;5.28;100.00;100847.94;5109803;28;20668;-82
2022/01/24 10:12:14;;;;;;;3.20;1.60;;;;;;;5.39;100.00;100855.66;5077458;28;20205;-83
2022/01/24 10:17:36;;;;;;;1.77;1.57;;;;;;;5.28;100.00;100861.09;5053304;28;20304;-82
2022/01/24 10:20:24;;;;;;;18.83;11.07;;;;;;;5.34;100.00;100865.41;5053846;28;20229;-83
2022/01/24 10:23:06;;;;;;;36.90;20.03;;;;;;;5.32;100.00;100862.78;5055033;27;20211;-82
2022/01/24 10:25:49;;;;;;;64.53;35.13;;;;;;;5.27;100.00;100866.38;5062854;27;20189;-82
2022/01/24 10:28:24;;;;;;;16.90;10.63;;;;;;;5.27;100.00;100863.75;5051567;28;20208;-83
2022/01/24 10:31:07;;;;;;;11.70;7.20;;;;;;;5.39;100.00;100863.53;5059732;27;20192;-83
2022/01/24 10:34:03;;;;;;;21.57;13.50;;;;;;;5.33;100.00;100863.66;5063343;27;20193;-83
2022/01/24 10:36:40;;;;;;;6.00;3.87;;;;;;;5.28;100.00;100858.47;5059413;27;20217;-83
2022/01/24 10:39:19;;;;;;;4.20;3.03;;;;;;;5.38;100.00;100864.44;5052342;27;20205;-83
2022/01/24 10:42:30;;;;;;;3.60;1.80;;;;;;;5.44;100.00;100856.47;5052382;28;20205;-84
2022/01/24 10:45:03;;;;;;;4.67;3.97;;;;;;;5.27;100.00;100864.59;5098139;27;20351;-83
2022/01/24 10:47:33;;;;;;;6.97;3.97;;;;;;;5.14;100.00;100860.44;5175761;27;20189;-83
2022/01/24 10:50:05;;;;;;;9.33;5.10;;;;;;;5.39;100.00;100851.28;5174556;27;20197;-83
2022/01/24 10:52:34;;;;;;;6.03;3.60;;;;;;;5.47;100.00;100846.78;5111928;28;20222;-83
2022/01/24 10:55:14;;;;;;;9.63;5.83;;;;;;;5.63;100.00;100846.53;5108907;28;20221;-83
2022/01/24 10:57:45;;;;;;;6.57;3.57;;;;;;;5.71;100.00;100850.78;5109729;28;20214;-83
2022/01/24 11:00:23;;;;;;;5.40;3.17;;;;;;;5.59;100.00;100853.59;5113248;28;20220;-83
2022/01/24 11:02:55;;;;;;;5.10;2.20;;;;;;;5.57;100.00;100849.25;5103159;28;20224;-83
2022/01/24 11:05:25;;;;;;;16.23;7.80;;;;;;;5.59;100.00;100845.69;5014425;28;20198;-83
2022/01/24 11:07:56;;;;;;;12.23;6.07;;;;;;;5.66;100.00;100847.34;5013936;28;20745;-83
2022/01/24 11:10:28;;;;;;;3.47;3.07;;;;;;;5.64;100.00;100843.88;5030511;28;20207;-84
2022/01/24 11:12:58;;;;;;;7.53;6.87;;;;;;;5.56;100.00;100837.00;5069437;28;20199;-84
2022/01/24 11:15:30;;;;;;;5.70;3.37;;;;;;;5.80;100.00;100827.84;5022118;28;20211;-84
2022/01/24 11:17:59;;;;;;;10.13;3.70;;;;;;;5.53;100.00;100830.06;5071373;28;20216;-81
2022/01/24 11:20:32;;;;;;;6.00;3.90;;;;;;;5.73;100.00;100825.31;5070293;28;20188;-82
2022/01/24 11:23:05;;;;;;;10.33;6.10;;;;;;;5.64;100.00;100820.22;5068522;28;20192;-82
2022/01/24 11:25:36;;;;;;;3.00;2.40;;;;;;;5.61;100.00;100830.78;5069786;28;20200;-82
2022/01/24 11:28:06;;;;;;;7.13;4.63;;;;;;;5.47;100.00;100822.25;5067413;28;20204;-82
2022/01/24 11:30:43;;;;;;;6.47;4.53;;;;;;;5.44;100.00;100823.19;5141690;27;20192;-83
2022/01/24 11:33:14;;;;;;;17.07;11.93;;;;;;;5.51;100.00;100821.34;5172781;27;20257;-82
2022/01/24 11:35:50;;;;;;;22.47;13.83;;;;;;;5.59;100.00;100821.19;5166443;27;20257;-82
2022/01/24 11:38:30;;;;;;;13.17;8.37;;;;;;;5.31;100.00;100823.41;5169612;27;20224;-81
2022/01/24 11:41:03;;;;;;;4.93;3.63;;;;;;;5.39;100.00;100817.13;5173710;27;20192;-82
2022/01/24 11:43:35;;;;;;;4.10;2.60;;;;;;;5.47;100.00;100815.25;5169408;27;20185;-82
2022/01/24 11:46:28;;;;;;;4.83;3.10;;;;;;;5.44;100.00;100814.44;5170148;27;20225;-83
2022/01/24 11:49:04;;;;;;;2.63;2.10;;;;;;;5.48;100.00;100808.22;5172687;27;20193;-83
2022/01/24 11:51:34;;;;;;;3.10;1.80;;;;;;;5.66;100.00;100813.16;5175539;27;20197;-82
2022/01/24 11:54:30;;;;;;;5.17;2.70;;;;;;;5.65;100.00;100811.44;5171929;27;20241;-83
2022/01/24 11:57:27;;;;;;;5.70;3.30;;;;;;;5.67;100.00;100799.13;5170328;27;20185;-82
2022/01/24 12:00:19;;;;;;;4.00;3.43;;;;;;;5.72;100.00;100793.81;5158469;27;20200;-83
2022/01/24 12:02:52;;;;;;;3.53;1.83;;;;;;;5.72;100.00;100805.19;5181031;27;20188;-82
2022/01/24 12:05:24;;;;;;;8.40;3.00;;;;;;;5.66;100.00;100807.03;5177695;27;20196;-82
2022/01/24 12:07:59;;;;;;;6.20;2.77;;;;;;;5.77;100.00;100798.97;5174914;27;20276;-82
2022/01/24 12:10:47;;;;;;;4.93;2.43;;;;;;;5.32;100.00;100801.50;5194606;27;20177;-82
2022/01/24 12:13:35;;;;;;;3.00;2.50;;;;;;;5.48;100.00;100795.06;5191440;27;20191;-81
2022/01/24 12:16:07;;;;;;;3.40;3.00;;;;;;;5.59;100.00;100789.63;5184095;27;20201;-82
2022/01/24 12:19:03;;;;;;;5.03;3.03;;;;;;;5.65;100.00;100797.44;5187481;27;20213;-83
2022/01/24 12:21:34;;;;;;;6.77;3.87;;;;;;;5.63;100.00;100797.47;5173599;27;20200;-83
2022/01/24 12:24:08;;;;;;;3.33;2.50;;;;;;;5.50;100.00;100798.56;5175621;27;20203;-82
2022/01/24 12:26:42;;;;;;;2.20;2.00;;;;;;;5.04;100.00;100801.91;5170531;27;20196;-82
2022/01/24 12:29:15;;;;;;;2.90;2.00;;;;;;;5.03;100.00;100796.69;5169877;27;20276;-83
2022/01/24 12:31:47;;;;;;;2.73;2.10;;;;;;;4.96;100.00;100788.03;5173062;27;20223;-83
2022/01/24 12:34:22;;;;;;;3.90;2.43;;;;;;;5.09;100.00;100786.06;5177510;27;20217;-82
2022/01/24 12:37:04;;;;;;;2.53;2.13;;;;;;;5.20;100.00;100784.16;5172475;27;20214;-82
2022/01/24 12:39:37;;;;;;;4.73;2.20;;;;;;;5.48;100.00;100779.31;5170476;27;20213;-81
2022/01/24 12:42:12;;;;;;;5.03;2.80;;;;;;;5.42;100.00;100782.94;5169122;27;20200;-82
2022/01/24 12:47:30;;;;;;;3.90;2.77;;;;;;;5.47;100.00;100773.19;5172920;27;20196;-83
2022/01/24 12:50:01;;;;;;;4.13;3.07;;;;;;;5.53;100.00;100774.84;5176923;27;20185;-83